Weather reports worldwide

Advertisment
Malaga,Puerto, Spain (8479): temperature & dewpoint: 10.06.2019 13:00:00 - 16.06.2019 13:00:00 (CEST)Malaga,Puerto, Spain (8479): wind speed & gusts: 10.06.2019 13:00:00 - 16.06.2019 13:00:00 (CEST)Malaga,Puerto, Spain (8479): wind direction: 10.06.2019 13:00:00 - 16.06.2019 13:00:00 (CEST)Malaga,Puerto, Spain (8479): reduced air pressure: 10.06.2019 13:00:00 - 16.06.2019 13:00:00 (CEST)Malaga,Puerto, Spain (8479): precipitation: 10.06.2019 13:00:00 - 16.06.2019 13:00:00 (CEST)
Date & Time tt [°C] td [°C] ff [km/h] ff [kn] fx [km/h] fx [kn] dd ppp [hPa] rr [mm]
16.06.2019 13:00:00 - - - - - - - - -
16.06.2019 12:00:00 21,5 9,7 6 4 10 5 SSE 1017,7 0,0
16.06.2019 11:00:00 23,0 9,8 4 2 10 5 SSE 1017,1 0,0
16.06.2019 10:00:00 21,9 10,4 9 5 16 8 SW 1016,9 0,0
16.06.2019 09:00:00 19,8 7,9 3 1 9 5 NW 1016,7 0,0
16.06.2019 08:00:00 19,1 7,9 4 2 11 6 NNW 1016,7 -
16.06.2019 07:00:00 17,8 8,1 6 4 12 6 NW 1016,7 0,0
16.06.2019 06:00:00 17,3 13,8 0 0 13 7 SSE 1016,2 0,0
16.06.2019 05:00:00 17,4 13,1 4 2 10 5 ESE 1016,0 0,0
16.06.2019 04:00:00 17,5 14,6 3 2 9 5 E 1015,9 0,0
16.06.2019 03:00:00 17,8 14,7 4 2 8 4 S 1015,6 0,0
16.06.2019 02:00:00 17,8 15,1 5 3 12 6 E 1016,0 -
16.06.2019 01:00:00 18,0 14,7 5 3 10 6 E 1016,5 0,0
16.06.2019 00:00:00 18,1 14,8 7 4 10 6 ESE 1016,6 0,0
15.06.2019 23:00:00 18,5 14,6 4 2 10 5 ESE 1016,1 0,0
15.06.2019 22:00:00 18,9 14,2 4 2 17 9 ESE 1015,4 0,0
15.06.2019 21:00:00 19,6 12,8 12 7 22 12 E 1015,0 0,0
15.06.2019 20:00:00 20,4 11,6 14 8 24 13 E 1014,7 -
15.06.2019 19:00:00 20,6 10,1 11 6 22 12 E 1014,6 0,0
15.06.2019 18:00:00 22,1 9,6 14 8 27 15 E 1014,8 0,0
15.06.2019 17:00:00 21,1 9,4 16 9 37 20 E 1014,9 0,0
15.06.2019 16:00:00 20,8 8,1 16 9 36 20 E 1014,9 0,0
15.06.2019 15:00:00 21,5 8,1 28 15 42 23 SSW 1014,7 0,0
15.06.2019 14:00:00 24,8 6,5 18 10 33 18 SSW 1014,9 -
15.06.2019 13:00:00 28,5 7,7 13 7 35 19 WSW 1015,2 0,0
15.06.2019 12:00:00 25,6 8,2 17 9 36 19 SW 1015,6 0,0
15.06.2019 11:00:00 23,3 8,2 16 9 32 17 WSW 1015,6 0,0
15.06.2019 10:00:00 21,7 8,2 14 8 37 20 WSW 1015,7 0,0
15.06.2019 09:00:00 19,6 7,4 16 9 35 19 W 1015,7 0,0
15.06.2019 08:00:00 18,3 6,2 19 11 37 20 W 1016,1 -
15.06.2019 07:00:00 18,5 6,0 11 6 27 15 W 1016,6 0,0
15.06.2019 06:00:00 19,0 6,2 11 6 28 15 W 1016,1 0,0
15.06.2019 05:00:00 19,8 6,2 11 6 31 17 W 1015,9 0,0
15.06.2019 04:00:00 20,1 6,5 13 7 30 16 W 1016,0 0,0
15.06.2019 03:00:00 20,4 6,4 13 7 33 18 W 1016,1 0,0
15.06.2019 02:00:00 20,7 6,3 14 8 31 17 WNW 1016,2 -
15.06.2019 01:00:00 21,5 6,2 13 7 29 16 WNW 1016,4 0,0
15.06.2019 00:00:00 22,1 5,9 14 8 57 31 NW 1015,8 0,0
14.06.2019 23:00:00 22,9 5,8 11 6 26 14 NW 1015,3 0,0
14.06.2019 22:00:00 23,3 7,8 8 4 22 12 NW 1014,6 0,0
14.06.2019 21:00:00 21,4 10,0 6 3 18 10 E 1014,2 0,0
14.06.2019 20:00:00 21,4 10,9 5 3 29 16 SSE 1014,1 -
14.06.2019 19:00:00 21,4 9,6 17 9 41 22 SSW 1013,6 0,0
14.06.2019 18:00:00 20,8 9,7 29 16 43 23 SSW 1014,0 0,0
14.06.2019 17:00:00 20,8 10,3 30 16 45 25 SSW 1013,7 0,0
14.06.2019 16:00:00 20,5 10,9 26 14 41 22 SSW 1013,7 0,0
14.06.2019 15:00:00 20,9 11,3 22 12 46 25 SSW 1013,8 0,0
14.06.2019 14:00:00 20,7 10,5 27 15 47 25 SSW 1013,9 -
14.06.2019 13:00:00 20,4 10,5 28 15 43 23 SSW 1014,0 0,0
14.06.2019 12:00:00 21,0 9,9 23 12 35 19 SSW 1013,5 0,0
14.06.2019 11:00:00 21,3 11,3 9 5 14 7 SE 1013,3 0,0
14.06.2019 10:00:00 20,9 11,5 12 7 26 14 SSW 1012,6 0,0
14.06.2019 09:00:00 20,0 12,5 11 6 20 11 SSW 1012,0 0,0
14.06.2019 08:00:00 19,0 16,0 5 3 9 5 SSE 1012,4 -
14.06.2019 07:00:00 19,0 16,6 6 3 8 4 SE 1012,5 0,0
14.06.2019 06:00:00 19,1 16,7 3 2 6 4 S 1012,2 0,0
14.06.2019 05:00:00 19,2 16,8 3 2 11 6 ENE 1011,4 0,0
14.06.2019 04:00:00 19,2 16,4 6 3 13 7 SE 1011,5 0,0
14.06.2019 03:00:00 19,6 16,4 5 3 14 7 E 1011,7 0,0
14.06.2019 02:00:00 19,7 16,2 10 5 18 10 E 1012,7 -
14.06.2019 01:00:00 20,1 15,5 10 5 17 9 E 1013,0 0,0
14.06.2019 00:00:00 20,4 16,0 1 1 11 6 E 1012,4 0,0
13.06.2019 23:00:00 20,2 15,8 7 4 12 7 E 1011,5 0,0
13.06.2019 22:00:00 20,1 15,5 7 4 11 6 E 1010,6 0,0
13.06.2019 21:00:00 21,0 14,9 5 3 10 6 SSE 1009,3 0,0
13.06.2019 20:00:00 23,0 15,3 3 2 11 6 S 1008,6 -
13.06.2019 19:00:00 21,6 14,0 9 5 15 8 E 1008,4 0,0
13.06.2019 18:00:00 23,3 14,6 7 4 13 7 ESE 1008,8 0,0
13.06.2019 17:00:00 23,4 14,4 6 4 16 8 SSE 1009,1 0,0
13.06.2019 16:00:00 23,3 14,3 9 5 16 8 S 1009,3 0,0
13.06.2019 15:00:00 23,3 13,8 9 5 15 8 SSE 1009,6 0,0
13.06.2019 14:00:00 23,5 13,9 7 4 12 6 SE 1009,6 -
13.06.2019 13:00:00 24,1 13,3 8 4 12 6 S 1009,6 0,0
13.06.2019 12:00:00 24,9 13,1 5 3 9 5 S 1009,8 0,0
13.06.2019 11:00:00 23,9 13,7 3 1 6 3 S 1009,7 0,0
13.06.2019 10:00:00 21,5 14,4 4 2 9 5 SSE 1009,9 0,0
13.06.2019 09:00:00 20,9 13,8 4 2 10 5 E 1010,0 0,0
13.06.2019 08:00:00 19,4 13,3 2 1 10 5 NNE 1010,2 -
13.06.2019 07:00:00 18,4 13,1 4 2 13 7 NNW 1010,2 0,0
13.06.2019 06:00:00 18,8 14,5 5 3 13 7 WNW 1009,9 0,0
13.06.2019 05:00:00 18,8 13,4 4 2 11 6 NNW 1009,7 0,0
13.06.2019 04:00:00 18,9 13,7 4 2 13 7 NNW 1010,1 0,0
13.06.2019 03:00:00 18,5 14,6 2 1 10 5 NNW 1010,7 0,0
13.06.2019 02:00:00 19,0 15,3 3 2 8 4 E 1011,5 -
13.06.2019 01:00:00 18,6 15,7 3 2 17 9 E 1011,7 0,0
13.06.2019 00:00:00 18,6 15,7 9 5 18 10 ESE 1012,0 0,0
12.06.2019 23:00:00 18,5 15,6 8 4 15 8 ESE 1011,9 0,0
12.06.2019 22:00:00 18,5 15,6 8 5 14 7 ESE 1011,1 0,0
12.06.2019 21:00:00 18,9 14,8 6 3 12 7 ESE 1010,3 0,0
12.06.2019 20:00:00 20,3 14,7 5 3 12 7 SE 1010,1 -
12.06.2019 19:00:00 20,4 13,8 7 4 15 8 ESE 1010,1 0,0
12.06.2019 18:00:00 20,8 13,3 9 5 17 9 E 1010,8 0,0
12.06.2019 17:00:00 21,0 12,4 10 5 16 9 ESE 1011,2 0,0
12.06.2019 16:00:00 20,6 11,3 10 6 16 8 ESE 1011,4 0,0
12.06.2019 15:00:00 22,7 12,1 8 4 13 7 SSE 1011,7 0,0
12.06.2019 14:00:00 22,6 12,0 6 4 14 8 SSE 1012,2 -
12.06.2019 13:00:00 23,5 11,5 4 2 13 7 SE 1012,5 0,0
12.06.2019 12:00:00 21,6 12,7 7 4 15 8 SSE 1012,5 0,0
12.06.2019 11:00:00 20,4 13,6 9 5 17 9 SSE 1012,4 0,0
12.06.2019 10:00:00 18,7 14,4 8 4 14 8 S 1012,7 0,0
12.06.2019 09:00:00 18,3 14,4 11 6 21 11 SSE 1012,3 0,0
12.06.2019 08:00:00 17,9 14,4 11 6 18 10 SSE 1012,1 -
12.06.2019 07:00:00 17,7 14,2 11 6 26 14 ESE 1011,7 0,0
12.06.2019 06:00:00 18,2 14,7 11 6 33 18 E 1011,2 0,0
12.06.2019 05:00:00 18,1 15,2 12 7 27 15 ESE 1011,0 0,0
12.06.2019 04:00:00 19,1 16,0 13 7 44 24 E 1010,7 0,0
12.06.2019 03:00:00 19,8 15,7 20 11 53 28 E 1010,3 0,0
12.06.2019 02:00:00 20,4 12,4 14 8 66 35 ENE 1009,6 -
12.06.2019 01:00:00 24,8 8,7 13 7 27 15 W 1008,0 0,0
12.06.2019 00:00:00 25,6 9,4 12 6 29 15 WNW 1008,0 0,0
11.06.2019 23:00:00 26,7 8,2 14 8 28 15 WNW 1007,3 0,0
11.06.2019 22:00:00 28,2 7,4 8 4 26 14 NW 1006,4 0,0
11.06.2019 21:00:00 29,0 8,1 14 8 31 17 NW 1005,9 0,0
11.06.2019 20:00:00 29,5 8,0 17 9 35 19 WNW 1005,6 -
11.06.2019 19:00:00 29,8 8,2 18 10 36 20 NW 1005,6 0,0
11.06.2019 18:00:00 30,2 8,6 15 8 44 24 NW 1005,6 0,0
11.06.2019 17:00:00 30,0 9,0 16 9 37 20 NW 1005,8 0,0
11.06.2019 16:00:00 29,3 7,8 17 9 38 21 WNW 1006,1 0,0
11.06.2019 15:00:00 29,3 7,8 15 8 42 23 NW 1006,5 0,0
11.06.2019 14:00:00 28,3 8,1 15 8 39 21 NNW 1007,1 -
11.06.2019 13:00:00 24,0 10,7 13 7 32 17 SSW 1007,6 0,0
11.06.2019 12:00:00 23,3 9,3 10 5 24 13 SSW 1008,1 0,0
11.06.2019 11:00:00 27,0 5,3 10 5 29 15 WNW 1007,9 0,0
11.06.2019 10:00:00 25,9 6,5 9 5 22 12 WNW 1007,8 0,0
11.06.2019 09:00:00 23,6 8,5 7 4 20 11 SW 1008,0 0,0
11.06.2019 08:00:00 21,7 7,5 8 5 26 14 W 1008,4 -
11.06.2019 07:00:00 21,6 6,7 11 6 27 15 WNW 1009,2 0,0
11.06.2019 06:00:00 22,3 6,5 16 9 28 15 WNW 1009,1 0,0
11.06.2019 05:00:00 22,8 6,6 16 9 34 19 NW 1009,4 0,0
11.06.2019 04:00:00 23,0 6,7 20 11 37 20 NW 1009,9 0,0
11.06.2019 03:00:00 23,5 6,3 16 9 40 22 NW 1010,4 0,0
11.06.2019 02:00:00 23,7 6,5 18 10 33 18 NW 1011,0 -
11.06.2019 01:00:00 24,1 6,8 16 9 30 16 NW 1011,5 0,0
11.06.2019 00:00:00 24,7 6,9 11 6 26 14 NW 1011,8 0,0
10.06.2019 23:00:00 25,6 7,7 11 6 31 17 NNW 1011,5 0,0
10.06.2019 22:00:00 27,7 4,7 9 5 24 13 WNW 1010,5 0,0
10.06.2019 21:00:00 28,8 5,0 12 7 38 20 NNW 1010,2 0,0
10.06.2019 20:00:00 29,1 4,6 16 8 35 19 NW 1010,2 -
10.06.2019 19:00:00 29,7 4,4 15 8 37 20 W 1010,1 0,0
10.06.2019 18:00:00 30,5 7,7 9 5 34 18 W 1010,5 0,0
10.06.2019 17:00:00 24,1 7,3 17 9 33 18 SW 1011,3 0,0
10.06.2019 16:00:00 29,1 5,2 13 7 31 17 WNW 1011,8 0,0
10.06.2019 15:00:00 29,4 7,9 16 8 35 19 WSW 1012,1 0,0
10.06.2019 14:00:00 27,8 7,6 12 7 39 21 W 1012,9 -
10.06.2019 13:00:00 27,5 7,9 13 7 39 21 NW 1013,4 0,0

tt = temperature
td = dewpoint
ff = wind speed
fx = gusts
dd = wind direction
ppp = reduced air pressure
rr = precipitation

Next stations